Time;durP1;ratioP1;P1;durP2;ratioP2;P2;SDS_P1;SDS_P2;PMS_P1;PMS_P2;Temp;Humidity;BMP_temperature;BMP_pressure;BME280_temperature;BME280_humidity;BME280_pressure;Samples;Min_cycle;Max_cycle;Signal;HPM_P1;HPM_P2
2024/03/11 00:00:57;;;;;;;18.17;15.82;;;11.70;99.90;;;;;;5056231;28;20236;-76
2024/03/11 00:03:28;;;;;;;19.15;15.82;;;11.80;99.90;;;;;;5056408;28;20224;-76
2024/03/11 00:05:56;;;;;;;20.40;14.77;;;11.70;99.90;;;;;;5056139;28;20228;-75
2024/03/11 00:08:23;;;;;;;20.77;15.57;;;11.80;99.90;;;;;;5057146;28;20232;-76
2024/03/11 00:10:55;;;;;;;18.88;16.20;;;11.80;99.90;;;;;;5048563;28;20299;-75
2024/03/11 00:13:22;;;;;;;18.63;15.55;;;11.90;99.90;;;;;;5056270;28;20224;-75
2024/03/11 00:15:53;;;;;;;17.15;15.23;;;11.90;99.90;;;;;;5045596;28;20290;-76
2024/03/11 00:18:30;;;;;;;20.42;15.07;;;11.90;99.90;;;;;;5045879;28;20224;-76
2024/03/11 00:21:04;;;;;;;18.70;14.85;;;11.80;99.90;;;;;;5056287;28;20625;-76
2024/03/11 00:23:31;;;;;;;16.88;15.18;;;11.80;99.90;;;;;;5055828;28;20736;-76
2024/03/11 00:25:59;;;;;;;16.00;14.40;;;11.80;99.90;;;;;;5056325;28;20224;-76
2024/03/11 00:28:33;;;;;;;16.08;13.73;;;11.80;99.90;;;;;;5055989;28;20221;-76
2024/03/11 00:31:01;;;;;;;15.52;14.07;;;11.80;99.90;;;;;;5056489;28;20273;-76
2024/03/11 00:33:29;;;;;;;16.55;14.77;;;11.80;99.90;;;;;;5055190;28;20229;-76
2024/03/11 00:35:57;;;;;;;15.98;13.50;;;11.80;99.90;;;;;;5045976;28;20217;-76
2024/03/11 00:38:24;;;;;;;15.00;13.60;;;11.80;99.90;;;;;;5054206;28;20229;-76
2024/03/11 00:40:51;;;;;;;16.65;14.13;;;11.80;99.90;;;;;;5056123;28;20692;-76
2024/03/11 00:43:18;;;;;;;17.13;15.45;;;11.80;99.90;;;;;;5045025;28;20235;-76
2024/03/11 00:45:46;;;;;;;15.25;13.30;;;11.80;99.90;;;;;;5055906;28;20244;-76
2024/03/11 00:48:16;;;;;;;16.30;14.25;;;11.80;99.90;;;;;;5056017;28;20662;-76
2024/03/11 00:50:44;;;;;;;18.58;14.15;;;11.80;99.90;;;;;;5055331;28;20235;-76
2024/03/11 00:53:12;;;;;;;17.95;14.70;;;11.80;99.90;;;;;;5044814;28;20724;-76
2024/03/11 00:55:40;;;;;;;18.10;14.60;;;11.80;99.90;;;;;;5055237;28;20225;-76
2024/03/11 00:58:07;;;;;;;19.05;15.07;;;11.80;99.90;;;;;;5055111;28;20229;-75
2024/03/11 01:00:34;;;;;;;16.60;14.40;;;11.80;99.90;;;;;;5055137;28;20232;-75
2024/03/11 01:03:01;;;;;;;17.27;15.50;;;11.90;99.90;;;;;;5054727;28;20555;-75
2024/03/11 01:05:31;;;;;;;15.15;13.43;;;11.80;99.90;;;;;;5052994;28;20221;-75
2024/03/11 01:08:00;;;;;;;16.75;13.68;;;11.80;99.90;;;;;;5056627;28;20693;-74
2024/03/11 01:10:27;;;;;;;16.67;14.50;;;11.80;99.90;;;;;;5054879;28;20243;-75
2024/03/11 01:12:57;;;;;;;17.15;15.10;;;11.80;99.90;;;;;;5060288;28;20598;-75
2024/03/11 01:15:27;;;;;;;15.10;13.50;;;11.80;99.90;;;;;;5054787;28;20678;-75
2024/03/11 01:17:55;;;;;;;16.05;14.38;;;11.70;99.90;;;;;;5056150;28;20217;-75
2024/03/11 01:20:24;;;;;;;17.10;14.43;;;11.70;99.90;;;;;;5054216;28;20229;-75
2024/03/11 01:23:05;;;;;;;18.17;15.38;;;11.70;99.90;;;;;;5047100;28;20235;-75
2024/03/11 01:25:33;;;;;;;16.40;14.30;;;11.70;99.90;;;;;;5054906;28;20311;-76
2024/03/11 01:28:01;;;;;;;24.35;16.02;;;11.70;99.90;;;;;;5056927;28;20220;-76
2024/03/11 01:30:28;;;;;;;15.55;13.95;;;11.70;99.90;;;;;;5054101;28;20735;-76
2024/03/11 01:32:58;;;;;;;17.15;15.35;;;11.60;99.90;;;;;;5054909;28;20224;-76
2024/03/11 01:35:25;;;;;;;15.90;14.40;;;11.60;99.90;;;;;;5054658;28;20220;-76
2024/03/11 01:37:52;;;;;;;17.77;15.85;;;11.50;99.90;;;;;;5055283;28;20225;-76
2024/03/11 01:40:22;;;;;;;16.10;14.05;;;11.50;99.90;;;;;;5054235;28;20221;-75
2024/03/11 01:42:50;;;;;;;14.75;12.85;;;11.40;99.90;;;;;;5054535;28;20278;-76
2024/03/11 01:45:18;;;;;;;15.65;13.65;;;11.40;99.90;;;;;;5048772;28;20284;-76
2024/03/11 01:47:45;;;;;;;16.33;14.60;;;11.50;99.90;;;;;;5054724;28;20232;-76
2024/03/11 01:50:16;;;;;;;16.20;14.48;;;11.50;99.90;;;;;;5054592;28;20216;-76
2024/03/11 01:52:48;;;;;;;18.65;14.48;;;11.50;99.90;;;;;;5053091;28;20567;-76
2024/03/11 01:55:16;;;;;;;16.08;14.35;;;11.50;99.90;;;;;;5057133;28;20251;-76
2024/03/11 01:57:46;;;;;;;18.17;14.70;;;11.50;99.90;;;;;;5054164;28;20681;-76
2024/03/11 02:00:19;;;;;;;17.38;13.73;;;11.40;99.90;;;;;;5055054;28;20221;-77
2024/03/11 02:02:46;;;;;;;17.90;14.93;;;11.40;99.90;;;;;;5053762;28;20662;-76
2024/03/11 02:05:14;;;;;;;19.38;14.90;;;11.40;99.90;;;;;;5045732;28;20225;-76
2024/03/11 02:07:45;;;;;;;15.75;14.10;;;11.40;99.90;;;;;;5054549;28;20221;-77
2024/03/11 02:10:14;;;;;;;16.45;14.68;;;11.40;99.90;;;;;;5054065;28;20221;-76
2024/03/11 02:12:42;;;;;;;16.80;13.60;;;11.40;99.90;;;;;;5054029;28;20241;-76
2024/03/11 02:15:11;;;;;;;17.08;14.48;;;11.40;99.90;;;;;;5054744;28;20234;-76
2024/03/11 02:17:39;;;;;;;18.02;15.35;;;11.40;99.90;;;;;;5054544;28;20224;-76
2024/03/11 02:20:15;;;;;;;16.45;14.20;;;11.40;99.90;;;;;;5042328;28;20232;-76
2024/03/11 02:22:46;;;;;;;17.70;14.95;;;11.40;99.90;;;;;;5053403;28;20238;-76
2024/03/11 02:25:16;;;;;;;18.58;14.63;;;11.40;99.90;;;;;;5053488;28;20248;-75
2024/03/11 02:27:44;;;;;;;17.02;14.43;;;11.40;99.90;;;;;;5053735;28;20223;-76
2024/03/11 02:30:12;;;;;;;16.17;14.45;;;11.40;99.90;;;;;;5054214;28;20228;-76
2024/03/11 02:32:39;;;;;;;15.38;13.82;;;11.40;99.90;;;;;;5052854;28;20229;-76
2024/03/11 02:35:07;;;;;;;16.00;14.25;;;11.40;99.90;;;;;;5053514;28;20236;-76
2024/03/11 02:37:36;;;;;;;16.27;14.60;;;11.40;99.90;;;;;;5054167;28;20225;-76
2024/03/11 02:40:07;;;;;;;16.70;14.15;;;11.40;99.90;;;;;;5053339;28;20713;-76
2024/03/11 02:42:35;;;;;;;17.00;14.38;;;11.40;99.90;;;;;;5053755;28;20232;-76
2024/03/11 02:45:07;;;;;;;17.52;13.93;;;11.40;99.90;;;;;;5043185;28;21217;-76
2024/03/11 02:47:39;;;;;;;15.00;13.10;;;11.40;99.90;;;;;;5053256;28;20567;-77
2024/03/11 02:50:07;;;;;;;15.50;13.40;;;11.50;99.90;;;;;;5052633;28;20220;-76
2024/03/11 02:52:35;;;;;;;17.52;13.82;;;11.50;99.90;;;;;;5053312;28;20239;-76
2024/03/11 02:55:03;;;;;;;16.83;15.02;;;11.40;99.90;;;;;;5052820;28;20228;-76
2024/03/11 02:57:30;;;;;;;16.23;13.32;;;11.40;99.90;;;;;;5053738;28;20270;-76
2024/03/11 03:00:01;;;;;;;22.42;14.95;;;11.50;99.90;;;;;;5052521;28;20220;-76
2024/03/11 03:02:28;;;;;;;15.15;13.60;;;11.50;99.90;;;;;;5053407;28;20220;-76
2024/03/11 03:04:55;;;;;;;16.70;14.52;;;11.50;99.90;;;;;;5053238;28;20225;-76
2024/03/11 03:07:24;;;;;;;14.88;12.60;;;11.50;99.90;;;;;;5053458;28;20259;-76
2024/03/11 03:09:54;;;;;;;16.58;14.57;;;11.50;99.90;;;;;;5052388;28;20307;-76
2024/03/11 03:12:22;;;;;;;17.50;14.23;;;11.50;99.90;;;;;;5053388;28;20298;-76
2024/03/11 03:14:49;;;;;;;16.13;13.85;;;11.50;99.90;;;;;;5052218;28;20234;-76
2024/03/11 03:17:19;;;;;;;14.68;13.15;;;11.50;99.90;;;;;;5053375;28;20260;-77
2024/03/11 03:19:46;;;;;;;14.95;13.00;;;11.50;99.90;;;;;;5053141;28;20247;-76
2024/03/11 03:22:16;;;;;;;15.52;14.05;;;11.50;99.90;;;;;;5042611;28;20290;-76
2024/03/11 03:25:19;;;;;;;15.43;13.93;;;11.50;99.90;;;;;;5051873;28;20235;-77
2024/03/11 03:27:49;;;;;;;15.65;14.05;;;11.50;99.90;;;;;;5053447;28;20231;-77
2024/03/11 03:30:17;;;;;;;17.27;14.32;;;11.50;99.90;;;;;;5054327;28;20232;-77
2024/03/11 03:32:46;;;;;;;16.55;14.52;;;11.50;99.90;;;;;;5052303;28;20321;-77
2024/03/11 03:35:13;;;;;;;15.52;13.55;;;11.50;99.90;;;;;;5053043;28;20274;-77
2024/03/11 03:37:41;;;;;;;18.55;13.77;;;11.50;99.90;;;;;;5052495;28;20232;-77
2024/03/11 03:40:15;;;;;;;14.43;12.98;;;11.40;99.90;;;;;;5053142;28;20233;-77
2024/03/11 03:42:43;;;;;;;16.55;12.80;;;11.50;99.90;;;;;;5052007;28;20236;-77
2024/03/11 03:45:10;;;;;;;16.10;14.40;;;11.50;99.90;;;;;;5052940;28;20224;-77
2024/03/11 03:47:38;;;;;;;15.27;13.45;;;11.50;99.90;;;;;;5050884;28;20232;-77
2024/03/11 03:50:10;;;;;;;17.25;13.68;;;11.40;99.90;;;;;;5052730;28;20224;-76
2024/03/11 03:52:38;;;;;;;15.65;13.95;;;11.40;99.90;;;;;;5051945;28;20228;-77
2024/03/11 03:55:06;;;;;;;18.25;14.45;;;11.40;99.90;;;;;;5052887;28;20283;-76
2024/03/11 03:57:33;;;;;;;16.35;14.70;;;11.40;99.90;;;;;;5052880;28;20228;-77
2024/03/11 04:00:00;;;;;;;15.90;14.38;;;11.40;99.90;;;;;;5051952;28;20234;-77
2024/03/11 04:02:28;;;;;;;17.40;14.65;;;11.30;99.90;;;;;;5052705;28;20240;-76
2024/03/11 04:04:55;;;;;;;17.42;14.15;;;11.30;99.90;;;;;;5052214;28;20229;-76
2024/03/11 04:07:23;;;;;;;14.13;12.73;;;11.30;99.90;;;;;;5052692;28;20600;-76
2024/03/11 04:09:50;;;;;;;15.82;14.23;;;11.40;99.90;;;;;;5052319;28;20231;-76
2024/03/11 04:12:19;;;;;;;14.15;12.75;;;11.40;99.90;;;;;;5052923;28;20244;-76
2024/03/11 04:14:51;;;;;;;13.88;12.27;;;11.40;99.90;;;;;;5052092;28;20533;-76
2024/03/11 04:17:18;;;;;;;14.63;13.23;;;11.40;99.90;;;;;;5052899;28;20232;-76
2024/03/11 04:19:48;;;;;;;15.23;13.60;;;11.40;99.90;;;;;;5050971;28;20224;-76
2024/03/11 04:22:15;;;;;;;16.75;14.13;;;11.40;99.90;;;;;;5052532;28;20649;-76
2024/03/11 04:24:43;;;;;;;14.35;12.85;;;11.50;99.90;;;;;;5051758;28;20303;-76
2024/03/11 04:27:11;;;;;;;14.95;12.90;;;11.50;99.90;;;;;;5052411;28;20229;-76
2024/03/11 04:29:38;;;;;;;16.83;14.00;;;11.50;99.90;;;;;;5051838;28;20232;-76
2024/03/11 04:32:06;;;;;;;14.73;13.32;;;11.50;99.90;;;;;;5052186;28;20674;-76
2024/03/11 04:34:34;;;;;;;18.98;14.68;;;11.40;99.90;;;;;;5052171;28;20255;-76
2024/03/11 04:37:01;;;;;;;14.35;12.80;;;11.50;99.90;;;;;;5051863;28;20704;-76
2024/03/11 04:39:29;;;;;;;16.58;14.00;;;11.50;99.90;;;;;;5054417;28;20701;-76
2024/03/11 04:42:00;;;;;;;15.25;13.05;;;11.50;99.90;;;;;;5055511;28;20286;-76
2024/03/11 04:44:27;;;;;;;15.00;13.25;;;11.40;99.90;;;;;;5055558;28;20274;-76
2024/03/11 04:46:55;;;;;;;14.73;13.27;;;11.50;99.90;;;;;;5055624;28;20225;-76
2024/03/11 04:49:26;;;;;;;16.38;14.75;;;11.50;99.90;;;;;;5055868;28;20663;-76
2024/03/11 04:51:53;;;;;;;16.13;14.45;;;11.50;99.90;;;;;;5055233;28;20256;-76
2024/03/11 04:54:20;;;;;;;17.35;15.60;;;11.40;99.90;;;;;;5055867;28;20225;-76
2024/03/11 04:56:47;;;;;;;16.63;14.90;;;11.40;99.90;;;;;;5055180;28;20224;-76
2024/03/11 04:59:15;;;;;;;18.70;13.90;;;11.50;99.90;;;;;;5055896;28;20696;-76
2024/03/11 05:01:44;;;;;;;16.63;14.35;;;11.50;99.90;;;;;;5054827;28;20233;-76
2024/03/11 05:04:11;;;;;;;15.02;13.52;;;11.50;99.90;;;;;;5055497;28;20296;-76
2024/03/11 05:06:39;;;;;;;15.65;14.05;;;11.50;99.90;;;;;;5055584;28;20248;-76
2024/03/11 05:09:06;;;;;;;14.50;12.95;;;11.50;99.90;;;;;;5055500;28;20228;-76
2024/03/11 05:11:33;;;;;;;16.05;14.45;;;11.50;99.90;;;;;;5055471;28;20224;-76
2024/03/11 05:14:00;;;;;;;14.70;13.25;;;11.50;99.90;;;;;;5054907;28;20256;-76
2024/03/11 05:16:30;;;;;;;15.98;13.82;;;11.60;99.90;;;;;;5055666;28;20224;-76
2024/03/11 05:19:00;;;;;;;18.35;14.73;;;11.60;99.90;;;;;;5054748;28;20229;-77
2024/03/11 05:21:27;;;;;;;14.20;12.75;;;11.60;99.90;;;;;;5055205;28;20229;-76
2024/03/11 05:23:54;;;;;;;16.50;13.70;;;11.60;99.90;;;;;;5054251;28;20669;-76
2024/03/11 05:26:21;;;;;;;14.82;13.43;;;11.60;99.90;;;;;;5054921;28;20232;-76
2024/03/11 05:28:49;;;;;;;17.00;14.40;;;11.60;99.90;;;;;;5054102;28;20678;-76
2024/03/11 05:31:16;;;;;;;15.65;13.75;;;11.60;99.90;;;;;;5055204;28;20225;-76
2024/03/11 05:33:45;;;;;;;16.25;14.55;;;11.60;99.90;;;;;;5054262;28;20227;-76
2024/03/11 05:36:14;;;;;;;15.98;13.00;;;11.60;99.90;;;;;;5055176;28;20231;-76
2024/03/11 05:38:41;;;;;;;15.95;13.93;;;11.60;99.90;;;;;;5055209;28;20619;-76
2024/03/11 05:41:09;;;;;;;15.30;13.18;;;11.70;99.90;;;;;;5054186;28;20231;-76
2024/03/11 05:43:36;;;;;;;14.35;12.98;;;11.70;99.90;;;;;;5043773;28;20575;-76
2024/03/11 05:46:05;;;;;;;16.65;14.98;;;11.70;99.90;;;;;;5054430;28;20216;-76
2024/03/11 05:48:38;;;;;;;15.85;14.20;;;11.70;99.90;;;;;;5054697;28;20282;-76
2024/03/11 05:51:07;;;;;;;16.05;14.32;;;11.70;99.90;;;;;;5053574;28;20225;-76
2024/03/11 05:53:37;;;;;;;14.80;13.30;;;11.70;99.90;;;;;;5054377;28;20228;-76
2024/03/11 05:56:10;;;;;;;15.32;13.50;;;11.70;99.90;;;;;;5053777;28;20236;-76
2024/03/11 05:58:38;;;;;;;14.93;12.88;;;11.70;99.90;;;;;;5054764;28;20689;-76
2024/03/11 06:01:05;;;;;;;18.20;13.38;;;11.70;99.90;;;;;;5053903;28;20232;-76
2024/03/11 06:03:32;;;;;;;14.43;12.98;;;11.60;99.90;;;;;;5054634;28;20229;-76
2024/03/11 06:05:59;;;;;;;15.40;13.82;;;11.60;99.90;;;;;;5053273;28;20229;-76
2024/03/11 06:08:31;;;;;;;14.23;12.82;;;11.70;99.90;;;;;;5054168;28;20220;-76
2024/03/11 06:11:00;;;;;;;13.70;12.35;;;11.70;99.90;;;;;;5055537;28;20310;-76
2024/03/11 06:13:28;;;;;;;15.65;14.05;;;11.70;99.90;;;;;;5054866;28;20315;-76
2024/03/11 06:15:55;;;;;;;16.15;14.48;;;11.70;99.90;;;;;;5053021;28;20220;-75
2024/03/11 06:18:22;;;;;;;14.10;12.65;;;11.70;99.90;;;;;;5054490;28;20225;-74
2024/03/11 06:20:52;;;;;;;14.77;13.25;;;11.70;99.90;;;;;;5053818;28;20220;-75
2024/03/11 06:23:20;;;;;;;15.30;13.70;;;11.70;99.90;;;;;;5050592;28;20232;-78
2024/03/11 06:25:48;;;;;;;15.02;12.95;;;11.80;99.90;;;;;;5054400;28;20224;-75
2024/03/11 06:28:16;;;;;;;15.43;13.82;;;11.70;99.90;;;;;;5053666;28;20278;-76
2024/03/11 06:30:46;;;;;;;14.73;13.25;;;11.80;99.90;;;;;;5054053;28;20220;-76
2024/03/11 06:33:14;;;;;;;15.68;14.18;;;11.80;99.90;;;;;;5052336;28;20247;-76
2024/03/11 06:35:43;;;;;;;15.77;14.05;;;11.80;99.90;;;;;;5053836;28;20221;-76
2024/03/11 06:38:10;;;;;;;15.15;13.60;;;11.90;99.90;;;;;;5053423;28;20252;-76
2024/03/11 06:40:37;;;;;;;15.07;12.55;;;11.90;99.90;;;;;;5054104;28;20226;-76
2024/03/11 06:43:06;;;;;;;16.85;15.15;;;11.90;99.90;;;;;;5053122;28;20232;-76
2024/03/11 06:45:33;;;;;;;16.40;13.48;;;12.00;99.90;;;;;;5053648;28;20273;-76
2024/03/11 06:48:00;;;;;;;22.85;13.20;;;11.90;99.90;;;;;;5052968;28;20229;-76
2024/03/11 06:50:32;;;;;;;16.05;14.35;;;11.90;99.90;;;;;;5053705;28;20232;-76
2024/03/11 06:53:02;;;;;;;14.35;13.02;;;11.90;99.90;;;;;;5052711;28;20358;-75
2024/03/11 06:55:29;;;;;;;17.50;15.70;;;11.90;99.90;;;;;;5053768;28;20220;-76
2024/03/11 06:58:19;;;;;;;19.08;15.57;;;11.90;99.90;;;;;;5053621;28;20220;-77
2024/03/11 07:00:47;;;;;;;15.10;13.52;;;12.00;99.90;;;;;;5053251;28;20282;-77
2024/03/11 07:03:15;;;;;;;16.23;14.55;;;11.90;99.90;;;;;;5052503;28;20248;-77
2024/03/11 07:05:42;;;;;;;16.23;13.73;;;11.90;99.90;;;;;;5053046;28;20232;-77
2024/03/11 07:08:09;;;;;;;14.93;13.20;;;12.00;99.90;;;;;;5052595;28;20238;-75
2024/03/11 07:10:37;;;;;;;20.45;16.13;;;12.00;99.90;;;;;;5053346;28;20679;-76
2024/03/11 07:13:07;;;;;;;16.15;14.55;;;11.90;99.90;;;;;;5053035;28;20228;-77
2024/03/11 07:15:34;;;;;;;15.48;13.98;;;12.00;99.90;;;;;;5053236;28;20221;-76
2024/03/11 07:18:02;;;;;;;16.58;15.07;;;12.00;99.90;;;;;;5052805;28;20286;-77
2024/03/11 07:20:31;;;;;;;14.48;13.02;;;12.00;99.90;;;;;;5052540;28;20282;-77
2024/03/11 07:22:58;;;;;;;15.50;14.00;;;12.10;99.90;;;;;;5052571;28;20314;-76
2024/03/11 07:25:25;;;;;;;14.80;13.30;;;12.20;99.90;;;;;;5053062;28;20702;-76
2024/03/11 07:27:54;;;;;;;13.70;12.50;;;12.20;99.90;;;;;;5052611;28;20224;-77
2024/03/11 07:30:23;;;;;;;16.65;14.02;;;12.20;99.90;;;;;;5052700;28;20239;-76
2024/03/11 07:33:06;;;;;;;15.38;13.73;;;12.20;99.90;;;;;;5052208;28;20250;-77
2024/03/11 07:35:35;;;;;;;17.58;15.32;;;12.30;99.90;;;;;;5052901;28;20247;-76
2024/03/11 07:38:04;;;;;;;23.70;15.10;;;12.20;99.90;;;;;;5052575;28;20228;-77
2024/03/11 07:40:32;;;;;;;16.25;14.20;;;12.20;99.90;;;;;;5053137;28;20858;-76
2024/03/11 07:42:59;;;;;;;15.07;13.45;;;12.20;99.90;;;;;;5051956;28;20237;-77
2024/03/11 07:45:33;;;;;;;18.05;14.00;;;12.20;99.90;;;;;;5052421;28;20278;-77
2024/03/11 07:48:02;;;;;;;15.57;13.98;;;12.30;99.90;;;;;;5052414;28;20251;-77
2024/03/11 07:50:30;;;;;;;15.18;13.60;;;12.30;99.90;;;;;;5052884;28;20290;-77
2024/03/11 07:52:57;;;;;;;17.02;14.70;;;12.30;99.90;;;;;;5052278;28;20232;-76
2024/03/11 07:55:25;;;;;;;14.00;12.60;;;12.20;99.90;;;;;;5052927;28;20227;-76
2024/03/11 07:57:52;;;;;;;13.05;11.65;;;12.30;99.90;;;;;;5052498;28;20228;-77
2024/03/11 08:00:22;;;;;;;16.98;15.00;;;12.40;99.90;;;;;;5052712;28;20618;-77
2024/03/11 08:02:49;;;;;;;15.48;13.80;;;12.40;99.90;;;;;;5051942;28;20236;-77
2024/03/11 08:05:17;;;;;;;15.32;13.40;;;12.40;99.90;;;;;;5053594;28;20676;-76
2024/03/11 08:07:48;;;;;;;15.25;13.55;;;12.40;99.90;;;;;;5052288;28;20677;-76
2024/03/11 08:10:17;;;;;;;17.17;14.23;;;12.40;99.90;;;;;;5052762;28;20224;-77
2024/03/11 08:12:46;;;;;;;15.25;13.68;;;12.40;99.90;;;;;;5052703;28;20253;-76
2024/03/11 08:15:14;;;;;;;14.73;13.25;;;12.40;99.90;;;;;;5054616;28;20221;-76
2024/03/11 08:17:43;;;;;;;15.07;13.68;;;12.40;99.90;;;;;;5056581;28;20224;-76
2024/03/11 08:20:16;;;;;;;15.45;13.07;;;12.40;99.90;;;;;;5056361;28;20232;-76
2024/03/11 08:22:45;;;;;;;14.85;13.35;;;12.50;99.90;;;;;;5056216;28;20229;-77
2024/03/11 08:25:15;;;;;;;16.15;13.10;;;12.50;99.90;;;;;;5055870;28;20707;-77
2024/03/11 08:27:43;;;;;;;14.05;12.55;;;12.60;99.90;;;;;;5056312;28;20531;-76
2024/03/11 08:30:11;;;;;;;16.70;13.10;;;12.60;99.90;;;;;;5054969;28;20224;-76
2024/03/11 08:32:39;;;;;;;15.83;14.23;;;12.60;99.90;;;;;;5056477;28;20221;-77
2024/03/11 08:35:07;;;;;;;13.65;12.18;;;12.70;99.90;;;;;;5054925;28;20471;-76
2024/03/11 08:37:34;;;;;;;15.80;13.65;;;12.70;99.90;;;;;;5056018;28;20311;-77
2024/03/11 08:40:04;;;;;;;15.10;13.60;;;12.70;99.90;;;;;;5055968;28;20725;-77
2024/03/11 08:42:32;;;;;;;16.65;14.90;;;12.70;99.90;;;;;;5056230;28;20233;-76
2024/03/11 08:44:59;;;;;;;15.90;14.40;;;12.80;99.90;;;;;;5055530;28;20225;-77
2024/03/11 08:47:27;;;;;;;16.30;14.35;;;12.80;99.90;;;;;;5056272;28;20221;-77
2024/03/11 08:49:54;;;;;;;16.38;14.77;;;12.80;99.90;;;;;;5056050;28;20224;-76
2024/03/11 08:52:22;;;;;;;16.50;14.80;;;12.80;99.90;;;;;;5055523;28;20223;-76
2024/03/11 08:54:50;;;;;;;17.63;16.02;;;12.90;99.90;;;;;;5055966;28;20229;-77
2024/03/11 08:57:17;;;;;;;16.38;14.70;;;12.90;99.90;;;;;;5055539;28;20228;-78
2024/03/11 08:59:46;;;;;;;18.58;15.07;;;12.90;99.90;;;;;;5055963;28;20217;-77
2024/03/11 09:02:15;;;;;;;17.17;15.32;;;12.90;99.90;;;;;;5055092;28;20252;-76
2024/03/11 09:04:42;;;;;;;22.38;15.65;;;13.00;99.90;;;;;;5055615;28;20225;-76
2024/03/11 09:07:09;;;;;;;24.42;17.65;;;13.00;99.90;;;;;;5054750;28;20252;-77
2024/03/11 09:09:40;;;;;;;18.20;16.38;;;13.00;99.90;;;;;;5055433;28;20234;-76
2024/03/11 09:12:09;;;;;;;19.83;17.67;;;13.00;99.90;;;;;;5054911;28;20611;-77
2024/03/11 09:14:37;;;;;;;23.33;20.98;;;13.10;99.90;;;;;;5055749;28;20225;-76
2024/03/11 09:17:09;;;;;;;19.92;17.92;;;13.10;99.90;;;;;;5055008;28;20557;-76
2024/03/11 09:19:36;;;;;;;22.10;19.08;;;13.20;99.90;;;;;;5055071;28;20322;-77
2024/03/11 09:22:04;;;;;;;19.33;17.33;;;13.20;99.90;;;;;;5054433;28;20975;-76
2024/03/11 09:24:32;;;;;;;19.77;17.70;;;13.30;99.90;;;;;;5055384;28;20220;-77
2024/03/11 09:26:59;;;;;;;23.23;20.90;;;13.40;99.90;;;;;;5054335;28;20831;-77
2024/03/11 09:29:26;;;;;;;22.05;19.80;;;13.40;99.90;;;;;;5054660;28;20539;-76
2024/03/11 09:31:53;;;;;;;24.23;19.00;;;13.40;99.90;;;;;;5055035;28;20705;-77
2024/03/11 09:34:21;;;;;;;23.17;20.88;;;13.50;99.90;;;;;;5054017;28;20229;-77
2024/03/11 09:36:50;;;;;;;23.23;20.93;;;13.50;99.90;;;;;;5055033;28;20212;-77
2024/03/11 09:39:19;;;;;;;25.07;22.63;;;13.50;99.90;;;;;;5054819;28;20471;-77
2024/03/11 09:41:48;;;;;;;25.70;23.17;;;13.40;99.90;;;;;;5055017;28;20488;-77
2024/03/11 09:44:18;;;;;;;25.63;23.13;;;13.50;99.90;;;;;;5054479;28;20232;-77
2024/03/11 09:46:46;;;;;;;22.63;20.30;;;13.50;99.90;;;;;;5054751;28;20471;-77
2024/03/11 09:49:19;;;;;;;27.73;24.97;;;13.60;99.90;;;;;;5053622;28;20475;-77
2024/03/11 09:51:48;;;;;;;36.77;26.30;;;13.60;99.90;;;;;;5054552;28;20491;-77
2024/03/11 09:54:17;;;;;;;29.43;26.47;;;13.50;99.90;;;;;;5054507;28;20545;-77
2024/03/11 09:56:47;;;;;;;28.80;25.30;;;13.60;99.90;;;;;;5054491;28;20491;-77
2024/03/11 09:59:18;;;;;;;25.50;22.80;;;13.60;99.90;;;;;;5054056;28;20811;-76
2024/03/11 10:01:49;;;;;;;27.70;25.00;;;13.60;99.90;;;;;;5054920;28;20801;-76
2024/03/11 10:04:18;;;;;;;24.87;22.67;;;13.60;99.90;;;;;;5054050;28;20678;-76
2024/03/11 10:06:45;;;;;;;26.83;24.27;;;13.60;99.90;;;;;;5054446;28;20506;-76
2024/03/11 10:09:18;;;;;;;27.97;25.17;;;13.70;99.90;;;;;;5054116;28;20554;-76
2024/03/11 10:12:08;;;;;;;24.97;22.67;;;13.80;99.90;;;;;;5045745;28;20487;-76
2024/03/11 10:14:42;;;;;;;26.07;23.37;;;13.80;99.90;;;;;;5053890;28;20493;-76
2024/03/11 10:17:20;;;;;;;26.63;24.13;;;13.90;99.90;;;;;;5054365;28;21003;-76
2024/03/11 10:19:47;;;;;;;28.37;25.67;;;13.90;99.90;;;;;;5054458;28;20221;-76
2024/03/11 10:22:23;;;;;;;24.97;22.47;;;14.00;99.90;;;;;;5053686;28;20932;-76
2024/03/11 10:24:55;;;;;;;25.23;22.60;;;14.00;99.90;;;;;;5054178;28;20478;-76
2024/03/11 10:27:23;;;;;;;27.33;24.47;;;14.10;99.90;;;;;;5053811;28;20542;-76
2024/03/11 10:29:51;;;;;;;22.80;20.70;;;14.20;99.90;;;;;;5053991;28;20952;-76
2024/03/11 10:32:36;;;;;;;25.97;23.33;;;14.20;99.90;;;;;;5053374;28;20459;-76
2024/03/11 10:35:04;;;;;;;27.70;24.87;;;14.30;99.90;;;;;;5053792;28;20479;-76
2024/03/11 10:37:34;;;;;;;25.57;23.10;;;14.30;99.90;;;;;;5053764;28;20535;-76
2024/03/11 10:40:04;;;;;;;24.53;22.23;;;14.40;99.90;;;;;;5053867;28;20819;-76
2024/03/11 10:42:32;;;;;;;23.40;21.40;;;14.50;99.90;;;;;;5053849;28;20487;-76
2024/03/11 10:45:05;;;;;;;22.67;20.57;;;14.50;99.90;;;;;;5053289;28;20510;-76
2024/03/11 10:47:32;;;;;;;28.17;25.37;;;14.60;99.90;;;;;;5053808;28;20479;-76
2024/03/11 10:50:01;;;;;;;26.73;24.23;;;14.50;99.90;;;;;;5053017;28;20467;-76
2024/03/11 10:52:34;;;;;;;26.80;24.10;;;14.50;99.90;;;;;;5052862;28;20467;-76
2024/03/11 10:55:07;;;;;;;24.40;22.00;;;14.50;99.90;;;;;;5053034;28;20524;-76
2024/03/11 10:57:43;;;;;;;22.07;19.87;;;14.60;99.90;;;;;;5044556;28;20555;-76
2024/03/11 11:00:19;;;;;;;22.20;20.00;;;14.70;99.90;;;;;;5045170;28;20471;-76
2024/03/11 11:03:01;;;;;;;22.63;20.53;;;14.80;99.90;;;;;;5052892;28;20849;-76
2024/03/11 11:05:32;;;;;;;21.80;19.77;;;14.80;99.90;;;;;;5053330;28;20508;-76
2024/03/11 11:08:02;;;;;;;25.47;23.07;;;14.90;99.90;;;;;;5053665;28;20463;-76
2024/03/11 11:10:38;;;;;;;24.77;22.37;;;14.90;99.90;;;;;;5052930;28;20546;-76
2024/03/11 11:13:06;;;;;;;22.40;20.10;;;14.90;99.90;;;;;;5053140;28;20562;-77
2024/03/11 11:15:36;;;;;;;22.30;20.20;;;15.00;99.90;;;;;;5053050;28;20470;-77
2024/03/11 11:18:07;;;;;;;25.03;22.70;;;15.00;99.90;;;;;;5041698;28;20498;-77
2024/03/11 11:20:38;;;;;;;24.67;22.37;;;15.00;99.90;;;;;;5053300;28;20471;-77
2024/03/11 11:23:10;;;;;;;24.30;22.00;;;15.10;99.90;;;;;;5052176;28;20494;-76
2024/03/11 11:25:44;;;;;;;22.60;20.50;;;15.10;99.90;;;;;;5053057;28;20524;-78
2024/03/11 11:28:14;;;;;;;21.27;19.27;;;15.10;99.90;;;;;;5044217;28;20516;-76
2024/03/11 11:30:43;;;;;;;24.23;22.13;;;15.20;99.90;;;;;;5042491;28;20961;-76
2024/03/11 11:33:11;;;;;;;22.07;19.97;;;15.20;99.90;;;;;;5051694;28;20475;-75
2024/03/11 11:35:43;;;;;;;20.80;18.80;;;15.20;99.90;;;;;;5052890;28;20518;-75
2024/03/11 11:38:29;;;;;;;23.63;21.23;;;15.30;99.90;;;;;;5052364;28;20554;-76
2024/03/11 11:40:58;;;;;;;24.00;21.70;;;15.30;99.90;;;;;;5053031;28;20866;-75
2024/03/11 11:43:44;;;;;;;22.77;20.50;;;15.30;99.90;;;;;;5052598;28;20470;-75
2024/03/11 11:46:14;;;;;;;22.03;19.97;;;15.40;99.90;;;;;;5052104;28;20474;-76
2024/03/11 11:48:41;;;;;;;23.80;21.53;;;15.30;99.90;;;;;;5052917;28;20770;-75
2024/03/11 11:51:08;;;;;;;22.13;20.17;;;15.30;99.90;;;;;;5047326;28;20467;-76
2024/03/11 11:53:37;;;;;;;23.80;21.60;;;15.40;99.90;;;;;;5056235;28;20486;-75
2024/03/11 11:56:06;;;;;;;21.87;19.87;;;15.30;99.90;;;;;;5045669;28;20470;-75
2024/03/11 11:58:35;;;;;;;21.07;19.10;;;15.20;99.90;;;;;;5056054;28;20471;-76
2024/03/11 12:01:04;;;;;;;18.80;17.07;;;15.20;99.90;;;;;;5056798;28;20458;-76
2024/03/11 12:03:34;;;;;;;21.50;19.40;;;15.20;99.90;;;;;;5055505;28;20471;-77
2024/03/11 12:06:19;;;;;;;19.10;17.37;;;15.20;99.90;;;;;;5054747;28;20509;-76
2024/03/11 12:08:47;;;;;;;22.23;20.03;;;15.20;99.90;;;;;;5056754;28;20462;-76
2024/03/11 12:11:19;;;;;;;20.57;18.50;;;15.20;99.90;;;;;;5056811;28;20485;-76
2024/03/11 12:13:47;;;;;;;19.27;17.40;;;15.20;99.90;;;;;;5061612;28;20757;-77
2024/03/11 12:16:23;;;;;;;17.23;15.73;;;15.20;99.90;;;;;;5074189;28;20536;-77
2024/03/11 12:19:01;;;;;;;17.20;15.53;;;15.20;99.90;;;;;;5064773;28;20455;-77
2024/03/11 12:21:29;;;;;;;16.70;15.00;;;15.20;99.90;;;;;;5072278;28;20527;-77
2024/03/11 12:23:57;;;;;;;17.30;15.27;;;15.30;99.90;;;;;;5073600;28;20458;-76
2024/03/11 12:26:27;;;;;;;15.93;14.43;;;15.30;99.90;;;;;;5073402;28;20470;-76
2024/03/11 12:29:05;;;;;;;17.23;15.63;;;15.30;99.90;;;;;;5074214;28;20519;-75
2024/03/11 12:31:34;;;;;;;14.60;13.30;;;15.40;99.90;;;;;;5071255;28;20558;-76
2024/03/11 12:34:04;;;;;;;14.23;12.93;;;15.40;99.90;;;;;;5063488;28;20509;-76
2024/03/11 12:36:34;;;;;;;13.77;12.47;;;15.40;99.90;;;;;;5074320;28;20963;-76
2024/03/11 12:39:04;;;;;;;15.07;13.63;;;15.40;99.90;;;;;;5074558;28;20470;-76